Home > Products > Valid Products > TAF

000
FTUS46 KOTX 020520
TAFMWH
TAF
KMWH 020520Z 0206/0306 15005KT P6SM OVC150
     FM020900 35007KT P6SM SCT100 OVC150
     FM021800 35015KT P6SM SCT100 BKN200
     FM030500 35020G29KT P6SM SCT100 SCT200=



000
FTUS46 KOTX 020520
TAFEAT
TAF
KEAT 020520Z 0206/0306 10003KT P6SM OVC150
     FM020700 33005KT P6SM OVC150
     FM021300 33006KT P6SM VCSH SCT090 OVC150
     FM021900 34012KT P6SM SCT150
     FM030500 33017G25KT P6SM SCT150=



000
FTUS46 KOTX 020520
TAFCOE
TAF
KCOE 020520Z 0206/0306 07005KT P6SM OVC150
     FM021200 05007KT P6SM BKN080 OVC100
      TEMPO 0220/0224 5SM -SHSN BKN050 OVC080
     FM030500 04019G29KT P6SM BKN060 BKN120
      AMD LTD TO CLD AND VIS=



000
FTUS46 KOTX 020520
TAFSFF
TAF
KSFF 020520Z 0206/0306 VRB03KT P6SM OVC150
     FM021200 03002KT P6SM SCT080 OVC150
     FM021900 04005KT P6SM VCSH BKN060 OVC120
     FM030500 04015G25KT P6SM BKN060 BKN120=



000
FTUS46 KOTX 020520
TAFSFF
TAF
KSFF 020520Z 0206/0306 VRB03KT P6SM OVC150
     FM021200 03002KT P6SM SCT080 OVC150
     FM021900 04005KT P6SM VCSH BKN060 OVC120
     FM030500 04015G25KT P6SM BKN060 BKN120=



000
FTUS46 KOTX 020520
TAFMWH
TAF
KMWH 020520Z 0206/0306 15005KT P6SM OVC150
     FM020900 35007KT P6SM SCT100 OVC150
     FM021800 35015KT P6SM SCT100 BKN200
     FM030500 35020G29KT P6SM SCT100 SCT200=



000
FTUS46 KOTX 020520
TAFEAT
TAF
KEAT 020520Z 0206/0306 10003KT P6SM OVC150
     FM020700 33005KT P6SM OVC150
     FM021300 33006KT P6SM VCSH SCT090 OVC150
     FM021900 34012KT P6SM SCT150
     FM030500 33017G25KT P6SM SCT150=



000
FTUS46 KOTX 020520
TAFCOE
TAF
KCOE 020520Z 0206/0306 07005KT P6SM OVC150
     FM021200 05007KT P6SM BKN080 OVC100
      TEMPO 0220/0224 5SM -SHSN BKN050 OVC080
     FM030500 04019G29KT P6SM BKN060 BKN120
      AMD LTD TO CLD AND VIS=



000
FTUS46 KOTX 020520
TAFLWS
TAF
KLWS 020520Z 0206/0306 VRB04KT P6SM OVC150
     FM021200 17006KT P6SM OVC150
     FM021900 32007KT P6SM VCSH SCT080 BKN120
     FM030500 32015G22KT P6SM SCT080 BKN120=



000
FTUS46 KOTX 020520
TAFPUW
TAF
KPUW 020520Z 0206/0306 14004KT P6SM OVC150
     FM021500 28004KT P6SM SCT090 OVC150
     FM022000 33007KT P6SM VCSH SCT070 BKN120
     FM030500 31012G19KT P6SM SCT070 BKN120=



000
FTUS46 KOTX 020520
TAFGEG
TAF
KGEG 020520Z 0206/0306 VRB03KT P6SM OVC150
     FM021200 06005KT P6SM SCT070 OVC150
     FM021800 06007KT P6SM VCSH BKN060 OVC120
     FM030500 04017G29KT P6SM BKN060 BKN120=



000
FTUS46 KOTX 020520
TAFPUW
TAF
KPUW 020520Z 0206/0306 14004KT P6SM OVC150
     FM021500 28004KT P6SM SCT090 OVC150
     FM022000 33007KT P6SM VCSH SCT070 BKN120
     FM030500 31012G19KT P6SM SCT070 BKN120=



000
FTUS46 KOTX 020520
TAFLWS
TAF
KLWS 020520Z 0206/0306 VRB04KT P6SM OVC150
     FM021200 17006KT P6SM OVC150
     FM021900 32007KT P6SM VCSH SCT080 BKN120
     FM030500 32015G22KT P6SM SCT080 BKN120=



000
FTUS46 KOTX 020520
TAFMWH
TAF
KMWH 020520Z 0206/0306 15005KT P6SM OVC150
     FM020900 35007KT P6SM SCT100 OVC150
     FM021800 35015KT P6SM SCT100 BKN200
     FM030500 35020G29KT P6SM SCT100 SCT200=



000
FTUS46 KOTX 020520
TAFEAT
TAF
KEAT 020520Z 0206/0306 10003KT P6SM OVC150
     FM020700 33005KT P6SM OVC150
     FM021300 33006KT P6SM VCSH SCT090 OVC150
     FM021900 34012KT P6SM SCT150
     FM030500 33017G25KT P6SM SCT150=



000
FTUS46 KOTX 020520
TAFGEG
TAF
KGEG 020520Z 0206/0306 VRB03KT P6SM OVC150
     FM021200 06005KT P6SM SCT070 OVC150
     FM021800 06007KT P6SM VCSH BKN060 OVC120
     FM030500 04017G29KT P6SM BKN060 BKN120=



000
FTUS46 KOTX 020520
TAFGEG
TAF
KGEG 020520Z 0206/0306 VRB03KT P6SM OVC150
     FM021200 06005KT P6SM SCT070 OVC150
     FM021800 06007KT P6SM VCSH BKN060 OVC120
     FM030500 04017G29KT P6SM BKN060 BKN120=



000
FTUS46 KOTX 020520
TAFCOE
TAF
KCOE 020520Z 0206/0306 07005KT P6SM OVC150
     FM021200 05007KT P6SM BKN080 OVC100
      TEMPO 0220/0224 5SM -SHSN BKN050 OVC080
     FM030500 04019G29KT P6SM BKN060 BKN120
      AMD LTD TO CLD AND VIS=



000
FTUS46 KOTX 020520
TAFSFF
TAF
KSFF 020520Z 0206/0306 VRB03KT P6SM OVC150
     FM021200 03002KT P6SM SCT080 OVC150
     FM021900 04005KT P6SM VCSH BKN060 OVC120
     FM030500 04015G25KT P6SM BKN060 BKN120=



000
FTUS46 KOTX 020520
TAFLWS
TAF
KLWS 020520Z 0206/0306 VRB04KT P6SM OVC150
     FM021200 17006KT P6SM OVC150
     FM021900 32007KT P6SM VCSH SCT080 BKN120
     FM030500 32015G22KT P6SM SCT080 BKN120=



000
FTUS46 KOTX 020520
TAFMWH
TAF
KMWH 020520Z 0206/0306 15005KT P6SM OVC150
     FM020900 35007KT P6SM SCT100 OVC150
     FM021800 35015KT P6SM SCT100 BKN200
     FM030500 35020G29KT P6SM SCT100 SCT200=



000
FTUS46 KOTX 020520
TAFGEG
TAF
KGEG 020520Z 0206/0306 VRB03KT P6SM OVC150
     FM021200 06005KT P6SM SCT070 OVC150
     FM021800 06007KT P6SM VCSH BKN060 OVC120
     FM030500 04017G29KT P6SM BKN060 BKN120=



000
FTUS46 KOTX 020520
TAFCOE
TAF
KCOE 020520Z 0206/0306 07005KT P6SM OVC150
     FM021200 05007KT P6SM BKN080 OVC100
      TEMPO 0220/0224 5SM -SHSN BKN050 OVC080
     FM030500 04019G29KT P6SM BKN060 BKN120
      AMD LTD TO CLD AND VIS=



000
FTUS46 KOTX 020520
TAFLWS
TAF
KLWS 020520Z 0206/0306 VRB04KT P6SM OVC150
     FM021200 17006KT P6SM OVC150
     FM021900 32007KT P6SM VCSH SCT080 BKN120
     FM030500 32015G22KT P6SM SCT080 BKN120=



000
FTUS46 KOTX 020520
TAFPUW
TAF
KPUW 020520Z 0206/0306 14004KT P6SM OVC150
     FM021500 28004KT P6SM SCT090 OVC150
     FM022000 33007KT P6SM VCSH SCT070 BKN120
     FM030500 31012G19KT P6SM SCT070 BKN120=



000
FTUS46 KOTX 020520
TAFEAT
TAF
KEAT 020520Z 0206/0306 10003KT P6SM OVC150
     FM020700 33005KT P6SM OVC150
     FM021300 33006KT P6SM VCSH SCT090 OVC150
     FM021900 34012KT P6SM SCT150
     FM030500 33017G25KT P6SM SCT150=



000
FTUS46 KOTX 020520
TAFPUW
TAF
KPUW 020520Z 0206/0306 14004KT P6SM OVC150
     FM021500 28004KT P6SM SCT090 OVC150
     FM022000 33007KT P6SM VCSH SCT070 BKN120
     FM030500 31012G19KT P6SM SCT070 BKN120=



000
FTUS46 KOTX 020520
TAFSFF
TAF
KSFF 020520Z 0206/0306 VRB03KT P6SM OVC150
     FM021200 03002KT P6SM SCT080 OVC150
     FM021900 04005KT P6SM VCSH BKN060 OVC120
     FM030500 04015G25KT P6SM BKN060 BKN120=



000
FTUS46 KOTX 012320
TAFSFF
TAF
KSFF 012320Z 0200/0224 VRB03KT P6SM SCT150 BKN200
     FM021200 03002KT P6SM SCT080 OVC150
     FM021900 04005KT P6SM VCSH BKN060 OVC120=



000
FTUS46 KOTX 012320
TAFMWH
TAF
KMWH 012320Z 0200/0224 18007KT P6SM FEW200
     FM020900 35007KT P6SM SCT100 BKN150
     FM021800 35015KT P6SM SCT100 BKN200=



000
FTUS46 KOTX 012320
TAFSFF
TAF
KSFF 012320Z 0200/0224 VRB03KT P6SM SCT150 BKN200
     FM021200 03002KT P6SM SCT080 OVC150
     FM021900 04005KT P6SM VCSH BKN060 OVC120=



000
FTUS46 KOTX 012320
TAFPUW
TAF
KPUW 012320Z 0200/0224 14007KT P6SM BKN200
     FM021500 28004KT P6SM SCT090 BKN150
     FM022000 33007KT P6SM VCSH SCT070 BKN120=



000
FTUS46 KOTX 012320
TAFLWS
TAF
KLWS 012320Z 0200/0224 VRB04KT P6SM BKN250
     FM021200 17006KT P6SM BKN150
     FM021900 32007KT P6SM VCSH SCT080 BKN120=



000
FTUS46 KOTX 012320
TAFEAT
TAF
KEAT 012320Z 0200/0224 12003KT P6SM BKN200
     FM020700 33005KT P6SM SCT150 BKN250
     FM021300 33006KT P6SM VCSH SCT090 OVC150
     FM021900 34012KT P6SM SCT150=



000
FTUS46 KOTX 012320
TAFLWS
TAF
KLWS 012320Z 0200/0224 VRB04KT P6SM BKN250
     FM021200 17006KT P6SM BKN150
     FM021900 32007KT P6SM VCSH SCT080 BKN120=



000
FTUS46 KOTX 012320
TAFMWH
TAF
KMWH 012320Z 0200/0224 18007KT P6SM FEW200
     FM020900 35007KT P6SM SCT100 BKN150
     FM021800 35015KT P6SM SCT100 BKN200=



000
FTUS46 KOTX 012320
TAFGEG
TAF
KGEG 012320Z 0200/0224 VRB03KT P6SM SCT150 BKN200
     FM021200 06005KT P6SM SCT070 OVC150
     FM021800 06007KT P6SM VCSH BKN060 OVC120=



000
FTUS46 KOTX 012320
TAFPUW
TAF
KPUW 012320Z 0200/0224 14007KT P6SM BKN200
     FM021500 28004KT P6SM SCT090 BKN150
     FM022000 33007KT P6SM VCSH SCT070 BKN120=



000
FTUS46 KOTX 012320
TAFCOE
TAF
KCOE 012320Z 0200/0224 VRB04KT P6SM SCT150 BKN200
     FM020600 07005KT P6SM BKN150
     FM021200 05007KT P6SM BKN080 OVC100
      TEMPO 0220/0224 5SM -SHSN BKN050 OVC080
      AMD LTD TO CLD AND VIS=



000
FTUS46 KOTX 012320
TAFGEG
TAF
KGEG 012320Z 0200/0224 VRB03KT P6SM SCT150 BKN200
     FM021200 06005KT P6SM SCT070 OVC150
     FM021800 06007KT P6SM VCSH BKN060 OVC120=



000
FTUS46 KOTX 012320
TAFEAT
TAF
KEAT 012320Z 0200/0224 12003KT P6SM BKN200
     FM020700 33005KT P6SM SCT150 BKN250
     FM021300 33006KT P6SM VCSH SCT090 OVC150
     FM021900 34012KT P6SM SCT150=



000
FTUS46 KOTX 012320
TAFCOE
TAF
KCOE 012320Z 0200/0224 VRB04KT P6SM SCT150 BKN200
     FM020600 07005KT P6SM BKN150
     FM021200 05007KT P6SM BKN080 OVC100
      TEMPO 0220/0224 5SM -SHSN BKN050 OVC080
      AMD LTD TO CLD AND VIS=



000
FTUS46 KOTX 011724
TAFEAT
TAF
KEAT 011724Z 0118/0218 VRB03KT P6SM SCT250
     FM020400 30005KT P6SM SCT150 BKN250
     FM021300 33006KT P6SM SCT090 OVC150=



000
FTUS46 KOTX 011724
TAFLWS
TAF
KLWS 011724Z 0118/0218 13004KT P6SM SCT250
     FM012000 VRB04KT P6SM BKN250
     FM020600 17006KT P6SM BKN150=



000
FTUS46 KOTX 011724
TAFCOE
TAF
KCOE 011724Z 0118/0218 08005KT P6SM SCT150 BKN200
     FM012000 VRB04KT P6SM SCT150 BKN200
     FM020600 07005KT P6SM BKN150
     FM021200 05007KT P6SM BKN080 OVC100
      AMD LTD TO CLD AND VIS=



000
FTUS46 KOTX 011724
TAFEAT
TAF
KEAT 011724Z 0118/0218 VRB03KT P6SM SCT250
     FM020400 30005KT P6SM SCT150 BKN250
     FM021300 33006KT P6SM SCT090 OVC150=



000
FTUS46 KOTX 011724
TAFSFF
TAF
KSFF 011724Z 0118/0218 VRB03KT P6SM SCT150 BKN200
     FM021200 03002KT P6SM SCT080 OVC100=



000
FTUS46 KOTX 011724
TAFPUW
TAF
KPUW 011724Z 0118/0218 11010KT P6SM SCT200
     FM012100 14007KT P6SM BKN200
     FM021500 28006KT P6SM SCT090 BKN150=



000
FTUS46 KOTX 011724
TAFGEG
TAF
KGEG 011724Z 0118/0218 09003KT P6SM SCT150 BKN200
     FM012300 24005KT P6SM BKN100 OVC200
     FM021200 06005KT P6SM SCT070 OVC100=



000
FTUS46 KOTX 011724
TAFLWS
TAF
KLWS 011724Z 0118/0218 13004KT P6SM SCT250
     FM012000 VRB04KT P6SM BKN250
     FM020600 17006KT P6SM BKN150=



000
FTUS46 KOTX 011724
TAFGEG
TAF
KGEG 011724Z 0118/0218 09003KT P6SM SCT150 BKN200
     FM012300 24005KT P6SM BKN100 OVC200
     FM021200 06005KT P6SM SCT070 OVC100=



000
FTUS46 KOTX 011724
TAFPUW
TAF
KPUW 011724Z 0118/0218 11010KT P6SM SCT200
     FM012100 14007KT P6SM BKN200
     FM021500 28006KT P6SM SCT090 BKN150=



000
FTUS46 KOTX 011724
TAFMWH
TAF
KMWH 011724Z 0118/0218 36004KT P6SM SCT250
     FM011900 15005KT P6SM FEW200
     FM020900 35007KT P6SM SCT100 BKN150=



000
FTUS46 KOTX 011724
TAFSFF
TAF
KSFF 011724Z 0118/0218 VRB03KT P6SM SCT150 BKN200
     FM021200 03002KT P6SM SCT080 OVC100=



000
FTUS46 KOTX 011724
TAFCOE
TAF
KCOE 011724Z 0118/0218 08005KT P6SM SCT150 BKN200
     FM012000 VRB04KT P6SM SCT150 BKN200
     FM020600 07005KT P6SM BKN150
     FM021200 05007KT P6SM BKN080 OVC100
      AMD LTD TO CLD AND VIS=



000
FTUS46 KOTX 011724
TAFMWH
TAF
KMWH 011724Z 0118/0218 36004KT P6SM SCT250
     FM011900 15005KT P6SM FEW200
     FM020900 35007KT P6SM SCT100 BKN150=



000
FTUS46 KOTX 011130
TAFCOE
TAF
KCOE 011130Z 0112/0212 11003KT P6SM FEW250
     FM012000 VRB04KT P6SM SCT250
     FM020600 07005KT P6SM BKN200
      AMD LTD TO CLD AND VIS=



000
FTUS46 KOTX 011130
TAFEAT
TAF
KEAT 011130Z 0112/0212 32004KT P6SM SCT250
     FM011800 13004KT P6SM FEW150
     FM020400 30005KT P6SM BKN250=



000
FTUS46 KOTX 011130
TAFLWS
TAF
KLWS 011130Z 0112/0212 07004KT P6SM SKC
     FM011900 VRB04KT P6SM FEW250
     FM020400 16004KT P6SM BKN250=



000
FTUS46 KOTX 011130
TAFGEG
TAF
KGEG 011130Z 0112/0212 VRB03KT P6SM SCT250
     FM011900 VRB04KT P6SM BKN250
     FM020600 04004KT P6SM OVC200=



000
FTUS46 KOTX 011130
TAFPUW
TAF
KPUW 011130Z 0112/0212 07003KT P6SM SKC
     FM012100 14007KT P6SM FEW250
     FM020400 17003KT P6SM BKN250=



000
FTUS46 KOTX 011130
TAFSFF
TAF
KSFF 011130Z 0112/0212 05003KT P6SM FEW250
     FM011900 15003KT P6SM BKN250
     FM020600 03002KT P6SM OVC200=



000
FTUS46 KOTX 011130
TAFPUW
TAF
KPUW 011130Z 0112/0212 07003KT P6SM SKC
     FM012100 14007KT P6SM FEW250
     FM020400 17003KT P6SM BKN250=



000
FTUS46 KOTX 011130
TAFMWH
TAF
KMWH 011130Z 0112/0212 36004KT P6SM SCT250
     FM011900 15005KT P6SM FEW200
     FM020400 VRB04KT P6SM BKN250=



000
FTUS46 KOTX 011130
TAFEAT
TAF
KEAT 011130Z 0112/0212 32004KT P6SM SCT250
     FM011800 13004KT P6SM FEW150
     FM020400 30005KT P6SM BKN250=



000
FTUS46 KOTX 011130
TAFLWS
TAF
KLWS 011130Z 0112/0212 07004KT P6SM SKC
     FM011900 VRB04KT P6SM FEW250
     FM020400 16004KT P6SM BKN250=



000
FTUS46 KOTX 011130
TAFSFF
TAF
KSFF 011130Z 0112/0212 05003KT P6SM FEW250
     FM011900 15003KT P6SM BKN250
     FM020600 03002KT P6SM OVC200=



000
FTUS46 KOTX 011130
TAFMWH
TAF
KMWH 011130Z 0112/0212 36004KT P6SM SCT250
     FM011900 15005KT P6SM FEW200
     FM020400 VRB04KT P6SM BKN250=



000
FTUS46 KOTX 011130
TAFCOE
TAF
KCOE 011130Z 0112/0212 11003KT P6SM FEW250
     FM012000 VRB04KT P6SM SCT250
     FM020600 07005KT P6SM BKN200
      AMD LTD TO CLD AND VIS=



000
FTUS46 KOTX 011130
TAFGEG
TAF
KGEG 011130Z 0112/0212 VRB03KT P6SM SCT250
     FM011900 VRB04KT P6SM BKN250
     FM020600 04004KT P6SM OVC200=



000
FTUS46 KOTX 010539
TAFMWH
TAF
KMWH 010539Z 0106/0206 01004KT P6SM SKC
     FM010900 02005KT P6SM FEW200
     FM012100 18005KT P6SM SCT150=



000
FTUS46 KOTX 010539
TAFCOE
TAF
KCOE 010539Z 0106/0206 08006KT P6SM SKC
     FM011200 08007KT P6SM FEW150
     FM012100 17004KT P6SM SCT120
      AMD LTD TO CLD AND VIS=



000
FTUS46 KOTX 010539
TAFEAT
TAF
KEAT 010539Z 0106/0206 31004KT P6SM FEW200
     FM011900 13004KT P6SM SCT150=



000
FTUS46 KOTX 010539
TAFPUW
TAF
KPUW 010539Z 0106/0206 02011KT P6SM SKC
     FM011200 09008KT P6SM FEW200
     FM020300 11003KT P6SM SCT150=



000
FTUS46 KOTX 010539
TAFCOE
TAF
KCOE 010539Z 0106/0206 08006KT P6SM SKC
     FM011200 08007KT P6SM FEW150
     FM012100 17004KT P6SM SCT120
      AMD LTD TO CLD AND VIS=



000
FTUS46 KOTX 010539
TAFGEG
TAF
KGEG 010539Z 0106/0206 04003KT P6SM SKC
     FM011200 06003KT P6SM FEW150
     FM012100 14004KT P6SM SCT120=



000
FTUS46 KOTX 010539
TAFEAT
TAF
KEAT 010539Z 0106/0206 31004KT P6SM FEW200
     FM011900 13004KT P6SM SCT150=



000
FTUS46 KOTX 010539
TAFCOE
TAF
KCOE 010539Z 0106/0206 08006KT P6SM SKC
     FM011200 08007KT P6SM FEW150
     FM012100 17004KT P6SM SCT120
      AMD LTD TO CLD AND VIS=



000
FTUS46 KOTX 010539
TAFPUW
TAF
KPUW 010539Z 0106/0206 02011KT P6SM SKC
     FM011200 09008KT P6SM FEW200
     FM020300 11003KT P6SM SCT150=



000
FTUS46 KOTX 010539
TAFMWH
TAF
KMWH 010539Z 0106/0206 01004KT P6SM SKC
     FM010900 02005KT P6SM FEW200
     FM012100 18005KT P6SM SCT150=



000
FTUS46 KOTX 010539
TAFPUW
TAF
KPUW 010539Z 0106/0206 02011KT P6SM SKC
     FM011200 09008KT P6SM FEW200
     FM020300 11003KT P6SM SCT150=



000
FTUS46 KOTX 010539
TAFCOE
TAF
KCOE 010539Z 0106/0206 08006KT P6SM SKC
     FM011200 08007KT P6SM FEW150
     FM012100 17004KT P6SM SCT120
      AMD LTD TO CLD AND VIS=



000
FTUS46 KOTX 010539
TAFGEG
TAF
KGEG 010539Z 0106/0206 04003KT P6SM SKC
     FM011200 06003KT P6SM FEW150
     FM012100 14004KT P6SM SCT120=



000
FTUS46 KOTX 010539
TAFMWH
TAF
KMWH 010539Z 0106/0206 01004KT P6SM SKC
     FM010900 02005KT P6SM FEW200
     FM012100 18005KT P6SM SCT150=



000
FTUS46 KOTX 010539
TAFLWS
TAF
KLWS 010539Z 0106/0206 11003KT P6SM SKC
     FM020000 VRB03KT P6SM SCT150=



000
FTUS46 KOTX 010539
TAFSFF
TAF
KSFF 010539Z 0106/0206 04002KT P6SM SKC
     FM011200 00000KT P6SM FEW150
     FM012100 17003KT P6SM SCT120=



000
FTUS46 KOTX 010539
TAFMWH
TAF
KMWH 010539Z 0106/0206 01004KT P6SM SKC
     FM010900 02005KT P6SM FEW200
     FM012100 18005KT P6SM SCT150=



000
FTUS46 KOTX 010539
TAFLWS
TAF
KLWS 010539Z 0106/0206 11003KT P6SM SKC
     FM020000 VRB03KT P6SM SCT150=



000
FTUS46 KOTX 010539
TAFSFF
TAF
KSFF 010539Z 0106/0206 04002KT P6SM SKC
     FM011200 00000KT P6SM FEW150
     FM012100 17003KT P6SM SCT120=



000
FTUS46 KOTX 010539
TAFGEG
TAF
KGEG 010539Z 0106/0206 04003KT P6SM SKC
     FM011200 06003KT P6SM FEW150
     FM012100 14004KT P6SM SCT120=



000
FTUS46 KOTX 010539
TAFEAT
TAF
KEAT 010539Z 0106/0206 31004KT P6SM FEW200
     FM011900 13004KT P6SM SCT150=



000
FTUS46 KOTX 010539
TAFPUW
TAF
KPUW 010539Z 0106/0206 02011KT P6SM SKC
     FM011200 09008KT P6SM FEW200
     FM020300 11003KT P6SM SCT150=



000
FTUS46 KOTX 010539
TAFLWS
TAF
KLWS 010539Z 0106/0206 11003KT P6SM SKC
     FM020000 VRB03KT P6SM SCT150=



000
FTUS46 KOTX 010539
TAFSFF
TAF
KSFF 010539Z 0106/0206 04002KT P6SM SKC
     FM011200 00000KT P6SM FEW150
     FM012100 17003KT P6SM SCT120=



000
FTUS46 KOTX 010539
TAFLWS
TAF
KLWS 010539Z 0106/0206 11003KT P6SM SKC
     FM020000 VRB03KT P6SM SCT150=



000
FTUS46 KOTX 010539
TAFSFF
TAF
KSFF 010539Z 0106/0206 04002KT P6SM SKC
     FM011200 00000KT P6SM FEW150
     FM012100 17003KT P6SM SCT120=



000
FTUS46 KOTX 010539
TAFGEG
TAF
KGEG 010539Z 0106/0206 04003KT P6SM SKC
     FM011200 06003KT P6SM FEW150
     FM012100 14004KT P6SM SCT120=



000
FTUS46 KOTX 010539
TAFEAT
TAF
KEAT 010539Z 0106/0206 31004KT P6SM FEW200
     FM011900 13004KT P6SM SCT150=



000
FTUS46 KOTX 282322
TAFPUW
TAF
KPUW 282322Z 0100/0124 02011KT P6SM SKC
     FM010300 04004KT P6SM SKC=



000
FTUS46 KOTX 282322
TAFMWH
TAF
KMWH 282322Z 0100/0124 01010G15KT P6SM SKC
     FM010300 01008KT P6SM SKC=



000
FTUS46 KOTX 282322
TAFEAT
TAF
KEAT 282322Z 0100/0124 27007KT P6SM SKC
     FM010600 33003KT P6SM SKC=



000
FTUS46 KOTX 282322
TAFCOE
TAF
KCOE 282322Z 0100/0124 02014G18KT P6SM SKC
     FM010200 05008KT P6SM SKC
      AMD LTD TO CLD AND VIS=



000
FTUS46 KOTX 282322
TAFLWS
TAF
KLWS 282322Z 0100/0124 VRB04KT P6SM SKC=



000
FTUS46 KOTX 282322
TAFGEG
TAF
KGEG 282322Z 0100/0124 02009G16KT P6SM SKC
     FM010300 04005KT P6SM SKC=



000
FTUS46 KOTX 282322
TAFSFF
TAF
KSFF 282322Z 0100/0124 05009G15KT P6SM SKC
     FM010300 04002KT P6SM SKC=



000
FTUS46 KOTX 282322
TAFMWH
TAF
KMWH 282322Z 0100/0124 01010G15KT P6SM SKC
     FM010300 01008KT P6SM SKC=



000
FTUS46 KOTX 282322
TAFGEG
TAF
KGEG 282322Z 0100/0124 02009G16KT P6SM SKC
     FM010300 04005KT P6SM SKC=



000
FTUS46 KOTX 282322
TAFSFF
TAF
KSFF 282322Z 0100/0124 05009G15KT P6SM SKC
     FM010300 04002KT P6SM SKC=



000
FTUS46 KOTX 282322
TAFLWS
TAF
KLWS 282322Z 0100/0124 VRB04KT P6SM SKC=



000
FTUS46 KOTX 282322
TAFEAT
TAF
KEAT 282322Z 0100/0124 27007KT P6SM SKC
     FM010600 33003KT P6SM SKC=



000
FTUS46 KOTX 282322
TAFPUW
TAF
KPUW 282322Z 0100/0124 02011KT P6SM SKC
     FM010300 04004KT P6SM SKC=



000
FTUS46 KOTX 282322
TAFCOE
TAF
KCOE 282322Z 0100/0124 02014G18KT P6SM SKC
     FM010200 05008KT P6SM SKC
      AMD LTD TO CLD AND VIS=



000
FTUS46 KOTX 282322
TAFEAT
TAF
KEAT 282322Z 0100/0124 27007KT P6SM SKC
     FM010600 33003KT P6SM SKC=



000
FTUS46 KOTX 282322
TAFMWH
TAF
KMWH 282322Z 0100/0124 01010G15KT P6SM SKC
     FM010300 01008KT P6SM SKC=



000
FTUS46 KOTX 282322
TAFLWS
TAF
KLWS 282322Z 0100/0124 VRB04KT P6SM SKC=



000
FTUS46 KOTX 282322
TAFEAT
TAF
KEAT 282322Z 0100/0124 27007KT P6SM SKC
     FM010600 33003KT P6SM SKC=



000
FTUS46 KOTX 282322
TAFPUW
TAF
KPUW 282322Z 0100/0124 02011KT P6SM SKC
     FM010300 04004KT P6SM SKC=



000
FTUS46 KOTX 282322
TAFMWH
TAF
KMWH 282322Z 0100/0124 01010G15KT P6SM SKC
     FM010300 01008KT P6SM SKC=



000
FTUS46 KOTX 282322
TAFGEG
TAF
KGEG 282322Z 0100/0124 02009G16KT P6SM SKC
     FM010300 04005KT P6SM SKC=



000
FTUS46 KOTX 282322
TAFLWS
TAF
KLWS 282322Z 0100/0124 VRB04KT P6SM SKC=



000
FTUS46 KOTX 282322
TAFGEG
TAF
KGEG 282322Z 0100/0124 02009G16KT P6SM SKC
     FM010300 04005KT P6SM SKC=



000
FTUS46 KOTX 282322
TAFSFF
TAF
KSFF 282322Z 0100/0124 05009G15KT P6SM SKC
     FM010300 04002KT P6SM SKC=



000
FTUS46 KOTX 282322
TAFSFF
TAF
KSFF 282322Z 0100/0124 05009G15KT P6SM SKC
     FM010300 04002KT P6SM SKC=



000
FTUS46 KOTX 282322
TAFPUW
TAF
KPUW 282322Z 0100/0124 02011KT P6SM SKC
     FM010300 04004KT P6SM SKC=



000
FTUS46 KOTX 282322
TAFCOE
TAF
KCOE 282322Z 0100/0124 02014G18KT P6SM SKC
     FM010200 05008KT P6SM SKC
      AMD LTD TO CLD AND VIS=



000
FTUS46 KOTX 282322
TAFCOE
TAF
KCOE 282322Z 0100/0124 02014G18KT P6SM SKC
     FM010200 05008KT P6SM SKC
      AMD LTD TO CLD AND VIS=



000
FTUS46 KOTX 282130 AAA
TAFLWS
TAF AMD
KLWS 282130Z 2822/0118 32008KT P6SM SKC
     FM010300 10004KT P6SM SKC=



000
FTUS46 KOTX 282130 AAA
TAFLWS
TAF AMD
KLWS 282130Z 2822/0118 32008KT P6SM SKC
     FM010300 10004KT P6SM SKC=



000
FTUS46 KOTX 282100 AAA
TAFCOE
TAF AMD
KCOE 282100Z 2821/0118 02014G18KT P6SM SKC
     FM010200 05008KT P6SM SKC
      AMD LTD TO CLD AND VIS=



000
FTUS46 KOTX 282100 AAA
TAFCOE
TAF AMD
KCOE 282100Z 2821/0118 02014G18KT P6SM SKC
     FM010200 05008KT P6SM SKC
      AMD LTD TO CLD AND VIS=



000
FTUS46 KOTX 282100 AAA
TAFCOE
TAF AMD
KCOE 282100Z 2821/0118 02014G18KT P6SM SKC
     FM010200 05008KT P6SM SKC
      AMD LTD TO CLD AND VIS=



000
FTUS46 KOTX 282100 AAA
TAFSFF
TAF AMD
KSFF 282100Z 2821/0118 07009G15KT P6SM SKC
     FM010300 04002KT P6SM SKC=



000
FTUS46 KOTX 282100 AAA
TAFSFF
TAF AMD
KSFF 282100Z 2821/0118 07009G15KT P6SM SKC
     FM010300 04002KT P6SM SKC=



000
FTUS46 KOTX 282100 AAA
TAFSFF
TAF AMD
KSFF 282100Z 2821/0118 07009G15KT P6SM SKC
     FM010300 04002KT P6SM SKC=



000
FTUS46 KOTX 282100 AAA
TAFCOE
TAF AMD
KCOE 282100Z 2821/0118 02014G18KT P6SM SKC
     FM010200 05008KT P6SM SKC
      AMD LTD TO CLD AND VIS=



000
FTUS46 KOTX 282059 AAB
TAFGEG
TAF AMD
KGEG 282059Z 2821/0118 02009G16KT P6SM SKC
     FM010300 04005KT P6SM SKC=



000
FTUS46 KOTX 282059 AAB
TAFGEG
TAF AMD
KGEG 282059Z 2821/0118 02009G16KT P6SM SKC
     FM010300 04005KT P6SM SKC=



000
FTUS46 KOTX 282059 AAB
TAFGEG
TAF AMD
KGEG 282059Z 2821/0118 02009G16KT P6SM SKC
     FM010300 04005KT P6SM SKC=



000
FTUS46 KOTX 282059 AAB
TAFGEG
TAF AMD
KGEG 282059Z 2821/0118 02009G16KT P6SM SKC
     FM010300 04005KT P6SM SKC=



000
FTUS46 KOTX 281817 AAA
TAFGEG
TAF AMD
KGEG 281817Z 2818/0118 03015G22KT P6SM SKC
     FM282200 03012KT P6SM SKC
     FM010300 04005KT P6SM SKC=



000
FTUS46 KOTX 281817 AAA
TAFGEG
TAF AMD
KGEG 281817Z 2818/0118 03015G22KT P6SM SKC
     FM282200 03012KT P6SM SKC
     FM010300 04005KT P6SM SKC=



000
FTUS46 KOTX 281817 AAA
TAFGEG
TAF AMD
KGEG 281817Z 2818/0118 03015G22KT P6SM SKC
     FM282200 03012KT P6SM SKC
     FM010300 04005KT P6SM SKC=



000
FTUS46 KOTX 281817 AAA
TAFGEG
TAF AMD
KGEG 281817Z 2818/0118 03015G22KT P6SM SKC
     FM282200 03012KT P6SM SKC
     FM010300 04005KT P6SM SKC=



000
FTUS46 KOTX 281720
TAFGEG
TAF
KGEG 281720Z 2818/0118 03015KT P6SM SKC
     FM282200 03012KT P6SM SKC
     FM010300 04005KT P6SM SKC=



000
FTUS46 KOTX 281720
TAFSFF
TAF
KSFF 281720Z 2818/0118 04013G18KT P6SM SKC
     FM282200 04009KT P6SM SKC
     FM010300 04002KT P6SM SKC=



000
FTUS46 KOTX 281720
TAFCOE
TAF
KCOE 281720Z 2818/0118 02019G23KT P6SM SKC
     FM010200 05008KT P6SM SKC
      AMD LTD TO CLD AND VIS=



000
FTUS46 KOTX 281720
TAFGEG
TAF
KGEG 281720Z 2818/0118 03015KT P6SM SKC
     FM282200 03012KT P6SM SKC
     FM010300 04005KT P6SM SKC=



000
FTUS46 KOTX 281720
TAFCOE
TAF
KCOE 281720Z 2818/0118 02019G23KT P6SM SKC
     FM010200 05008KT P6SM SKC
      AMD LTD TO CLD AND VIS=



000
FTUS46 KOTX 281720
TAFSFF
TAF
KSFF 281720Z 2818/0118 04013G18KT P6SM SKC
     FM282200 04009KT P6SM SKC
     FM010300 04002KT P6SM SKC=



000
FTUS46 KOTX 281720
TAFCOE
TAF
KCOE 281720Z 2818/0118 02019G23KT P6SM SKC
     FM010200 05008KT P6SM SKC
      AMD LTD TO CLD AND VIS=



000
FTUS46 KOTX 281720
TAFEAT
TAF
KEAT 281720Z 2818/0118 31007KT P6SM SKC
     FM010600 33003KT P6SM SKC=



000
FTUS46 KOTX 281720
TAFGEG
TAF
KGEG 281720Z 2818/0118 03015KT P6SM SKC
     FM282200 03012KT P6SM SKC
     FM010300 04005KT P6SM SKC=



000
FTUS46 KOTX 281720
TAFMWH
TAF
KMWH 281720Z 2818/0118 02014G24KT P6SM SKC
     FM010000 01010G15KT P6SM SKC
     FM010300 01008KT P6SM SKC=



000
FTUS46 KOTX 281720
TAFPUW
TAF
KPUW 281720Z 2818/0118 04011KT P6SM SKC
     FM010300 04004KT P6SM SKC=



000
FTUS46 KOTX 281720
TAFMWH
TAF
KMWH 281720Z 2818/0118 02014G24KT P6SM SKC
     FM010000 01010G15KT P6SM SKC
     FM010300 01008KT P6SM SKC=



000
FTUS46 KOTX 281720
TAFEAT
TAF
KEAT 281720Z 2818/0118 31007KT P6SM SKC
     FM010600 33003KT P6SM SKC=



000
FTUS46 KOTX 281720
TAFSFF
TAF
KSFF 281720Z 2818/0118 04013G18KT P6SM SKC
     FM282200 04009KT P6SM SKC
     FM010300 04002KT P6SM SKC=



000
FTUS46 KOTX 281720
TAFLWS
TAF
KLWS 281720Z 2818/0118 02004KT P6SM SKC
     FM282000 34012KT P6SM SKC
     FM010300 10004KT P6SM SKC=



000
FTUS46 KOTX 281720
TAFSFF
TAF
KSFF 281720Z 2818/0118 04013G18KT P6SM SKC
     FM282200 04009KT P6SM SKC
     FM010300 04002KT P6SM SKC=



000
FTUS46 KOTX 281720
TAFMWH
TAF
KMWH 281720Z 2818/0118 02014G24KT P6SM SKC
     FM010000 01010G15KT P6SM SKC
     FM010300 01008KT P6SM SKC=



000
FTUS46 KOTX 281720
TAFPUW
TAF
KPUW 281720Z 2818/0118 04011KT P6SM SKC
     FM010300 04004KT P6SM SKC=



000
FTUS46 KOTX 281720
TAFPUW
TAF
KPUW 281720Z 2818/0118 04011KT P6SM SKC
     FM010300 04004KT P6SM SKC=



000
FTUS46 KOTX 281720
TAFGEG
TAF
KGEG 281720Z 2818/0118 03015KT P6SM SKC
     FM282200 03012KT P6SM SKC
     FM010300 04005KT P6SM SKC=



000
FTUS46 KOTX 281720
TAFLWS
TAF
KLWS 281720Z 2818/0118 02004KT P6SM SKC
     FM282000 34012KT P6SM SKC
     FM010300 10004KT P6SM SKC=



000
FTUS46 KOTX 281720
TAFEAT
TAF
KEAT 281720Z 2818/0118 31007KT P6SM SKC
     FM010600 33003KT P6SM SKC=



000
FTUS46 KOTX 281720
TAFCOE
TAF
KCOE 281720Z 2818/0118 02019G23KT P6SM SKC
     FM010200 05008KT P6SM SKC
      AMD LTD TO CLD AND VIS=



000
FTUS46 KOTX 281720
TAFLWS
TAF
KLWS 281720Z 2818/0118 02004KT P6SM SKC
     FM282000 34012KT P6SM SKC
     FM010300 10004KT P6SM SKC=



000
FTUS46 KOTX 281720
TAFMWH
TAF
KMWH 281720Z 2818/0118 02014G24KT P6SM SKC
     FM010000 01010G15KT P6SM SKC
     FM010300 01008KT P6SM SKC=



000
FTUS46 KOTX 281720
TAFPUW
TAF
KPUW 281720Z 2818/0118 04011KT P6SM SKC
     FM010300 04004KT P6SM SKC=



000
FTUS46 KOTX 281720
TAFLWS
TAF
KLWS 281720Z 2818/0118 02004KT P6SM SKC
     FM282000 34012KT P6SM SKC
     FM010300 10004KT P6SM SKC=



000
FTUS46 KOTX 281720
TAFEAT
TAF
KEAT 281720Z 2818/0118 31007KT P6SM SKC
     FM010600 33003KT P6SM SKC=



000
FTUS46 KOTX 281502 AAA
TAFLWS
TAF AMD
KLWS 281502Z 2815/0112 VRB02KT P6SM SCT250
     FM281630 03012KT P6SM SKC
     FM282000 34012KT P6SM SKC
     FM010300 VRB04KT P6SM SKC=



000
FTUS46 KOTX 281502 AAA
TAFLWS
TAF AMD
KLWS 281502Z 2815/0112 VRB02KT P6SM SCT250
     FM281630 03012KT P6SM SKC
     FM282000 34012KT P6SM SKC
     FM010300 VRB04KT P6SM SKC=



000
FTUS46 KOTX 281501 AAA
TAFEAT
TAF AMD
KEAT 281501Z 2815/0112 VRB03KT P6SM SKC
     FM281630 30016G24KT P6SM SKC
     FM282200 31005KT P6SM SKC
     FM010300 33004KT P6SM SKC=



000
FTUS46 KOTX 281501 AAA
TAFEAT
TAF AMD
KEAT 281501Z 2815/0112 VRB03KT P6SM SKC
     FM281630 30016G24KT P6SM SKC
     FM282200 31005KT P6SM SKC
     FM010300 33004KT P6SM SKC=



000
FTUS46 KOTX 281404 AAA
TAFGEG
TAF AMD
KGEG 281404Z 2814/0112 04008KT P6SM SKC
     FM281600 03015G20KT P6SM SKC
     FM282300 04012KT P6SM SKC
     FM010300 04005KT P6SM SKC=



000
FTUS46 KOTX 281404 AAA
TAFGEG
TAF AMD
KGEG 281404Z 2814/0112 04008KT P6SM SKC
     FM281600 03015G20KT P6SM SKC
     FM282300 04012KT P6SM SKC
     FM010300 04005KT P6SM SKC=



000
FTUS46 KOTX 281404 AAA
TAFGEG
TAF AMD
KGEG 281404Z 2814/0112 04008KT P6SM SKC
     FM281600 03015G20KT P6SM SKC
     FM282300 04012KT P6SM SKC
     FM010300 04005KT P6SM SKC=



000
FTUS46 KOTX 281404 AAA
TAFGEG
TAF AMD
KGEG 281404Z 2814/0112 04008KT P6SM SKC
     FM281600 03015G20KT P6SM SKC
     FM282300 04012KT P6SM SKC
     FM010300 04005KT P6SM SKC=



000
FTUS46 KOTX 281127
TAFGEG
TAF
KGEG 281127Z 2812/0112 03013G18KT P6SM SKC
     FM281600 03015G20KT P6SM SKC
     FM282300 04012KT P6SM SKC
     FM010300 04005KT P6SM SKC=



000
FTUS46 KOTX 281127
TAFSFF
TAF
KSFF 281127Z 2812/0112 01008KT P6SM SKC
     FM281600 05012G21KT P6SM SKC
     FM282200 04010KT P6SM SKC
     FM010300 04002KT P6SM SKC=



000
FTUS46 KOTX 281127
TAFCOE
TAF
KCOE 281127Z 2812/0112 02015G20KT P6SM SKC
     FM281600 03020G27KT P6SM SKC
     FM010200 05007KT P6SM SKC
      AMD LTD TO CLD AND VIS=



000
FTUS46 KOTX 281127
TAFLWS
TAF
KLWS 281127Z 2812/0112 04007KT P6SM SCT250
     FM281500 03012KT P6SM SKC
     FM282000 34012KT P6SM SKC
     FM010300 VRB04KT P6SM SKC=



000
FTUS46 KOTX 281127
TAFLWS
TAF
KLWS 281127Z 2812/0112 04007KT P6SM SCT250
     FM281500 03012KT P6SM SKC
     FM282000 34012KT P6SM SKC
     FM010300 VRB04KT P6SM SKC=



000
FTUS46 KOTX 281127
TAFMWH
TAF
KMWH 281127Z 2812/0112 01010KT P6SM SKC
     FM281600 02022G29KT P6SM SKC
     FM282300 01010G15KT P6SM SKC
     FM010300 36008KT P6SM SKC=



000
FTUS46 KOTX 281127
TAFEAT
TAF
KEAT 281127Z 2812/0112 01012G20KT P6SM SKC
     FM281500 30016G24KT P6SM SKC
     FM282200 31005KT P6SM SKC
     FM010300 33004KT P6SM SKC=



000
FTUS46 KOTX 281127
TAFMWH
TAF
KMWH 281127Z 2812/0112 01010KT P6SM SKC
     FM281600 02022G29KT P6SM SKC
     FM282300 01010G15KT P6SM SKC
     FM010300 36008KT P6SM SKC=



000
FTUS46 KOTX 281127
TAFGEG
TAF
KGEG 281127Z 2812/0112 03013G18KT P6SM SKC
     FM281600 03015G20KT P6SM SKC
     FM282300 04012KT P6SM SKC
     FM010300 04005KT P6SM SKC=



000
FTUS46 KOTX 281127
TAFSFF
TAF
KSFF 281127Z 2812/0112 01008KT P6SM SKC
     FM281600 05012G21KT P6SM SKC
     FM282200 04010KT P6SM SKC
     FM010300 04002KT P6SM SKC=



000
FTUS46 KOTX 281127
TAFPUW
TAF
KPUW 281127Z 2812/0112 03014KT P6SM SCT250
     FM281600 08017G22KT P6SM SKC
     FM282200 06010KT P6SM SKC
     FM010300 04004KT P6SM SKC=



000
FTUS46 KOTX 281127
TAFEAT
TAF
KEAT 281127Z 2812/0112 01012G20KT P6SM SKC
     FM281500 30016G24KT P6SM SKC
     FM282200 31005KT P6SM SKC
     FM010300 33004KT P6SM SKC=



000
FTUS46 KOTX 281127
TAFPUW
TAF
KPUW 281127Z 2812/0112 03014KT P6SM SCT250
     FM281600 08017G22KT P6SM SKC
     FM282200 06010KT P6SM SKC
     FM010300 04004KT P6SM SKC=



000
FTUS46 KOTX 281127
TAFCOE
TAF
KCOE 281127Z 2812/0112 02015G20KT P6SM SKC
     FM281600 03020G27KT P6SM SKC
     FM010200 05007KT P6SM SKC
      AMD LTD TO CLD AND VIS=



000
FTUS46 KOTX 281013 AAA
TAFMWH
TAF AMD
KMWH 281013Z 2810/0106 03014KT P6SM SCT200
     FM281600 02022G29KT P6SM SKC
     FM282300 01010G15KT P6SM SKC
     FM010300 36008KT P6SM SKC=



000
FTUS46 KOTX 281013 AAA
TAFMWH
TAF AMD
KMWH 281013Z 2810/0106 03014KT P6SM SCT200
     FM281600 02022G29KT P6SM SKC
     FM282300 01010G15KT P6SM SKC
     FM010300 36008KT P6SM SKC=



000
FTUS46 KOTX 281012 AAA
TAFPUW
TAF AMD
KPUW 281012Z 2810/0106 04014KT P6SM SCT200
     FM281500 08017G22KT P6SM SKC
     FM282200 10010KT P6SM SKC
     FM010100 09005KT P6SM SKC=



000
FTUS46 KOTX 281012 AAA
TAFPUW
TAF AMD
KPUW 281012Z 2810/0106 04014KT P6SM SCT200
     FM281500 08017G22KT P6SM SKC
     FM282200 10010KT P6SM SKC
     FM010100 09005KT P6SM SKC=



000
FTUS46 KOTX 281007 AAA
TAFCOE
TAF AMD
KCOE 281007Z 2810/0106 02014G21KT P6SM FEW250
     FM281600 03020G27KT P6SM SKC
     FM010100 04009KT P6SM SKC
      AMD LTD TO CLD AND VIS=



000
FTUS46 KOTX 281007 AAA
TAFCOE
TAF AMD
KCOE 281007Z 2810/0106 02014G21KT P6SM FEW250
     FM281600 03020G27KT P6SM SKC
     FM010100 04009KT P6SM SKC
      AMD LTD TO CLD AND VIS=



000
FTUS46 KOTX 281007 AAA
TAFCOE
TAF AMD
KCOE 281007Z 2810/0106 02014G21KT P6SM FEW250
     FM281600 03020G27KT P6SM SKC
     FM010100 04009KT P6SM SKC
      AMD LTD TO CLD AND VIS=



000
FTUS46 KOTX 281007 AAA
TAFCOE
TAF AMD
KCOE 281007Z 2810/0106 02014G21KT P6SM FEW250
     FM281600 03020G27KT P6SM SKC
     FM010100 04009KT P6SM SKC
      AMD LTD TO CLD AND VIS=



000
FTUS46 KOTX 281006 AAA
TAFSFF
TAF AMD
KSFF 281006Z 2810/0106 02008KT P6SM FEW250
     FM281600 05012G21KT P6SM SKC
     FM282000 06010G14KT P6SM SKC
     FM010000 04006KT P6SM SKC=



000
FTUS46 KOTX 281006 AAA
TAFSFF
TAF AMD
KSFF 281006Z 2810/0106 02008KT P6SM FEW250
     FM281600 05012G21KT P6SM SKC
     FM282000 06010G14KT P6SM SKC
     FM010000 04006KT P6SM SKC=



000
FTUS46 KOTX 281006 AAA
TAFSFF
TAF AMD
KSFF 281006Z 2810/0106 02008KT P6SM FEW250
     FM281600 05012G21KT P6SM SKC
     FM282000 06010G14KT P6SM SKC
     FM010000 04006KT P6SM SKC=



000
FTUS46 KOTX 281006 AAA
TAFSFF
TAF AMD
KSFF 281006Z 2810/0106 02008KT P6SM FEW250
     FM281600 05012G21KT P6SM SKC
     FM282000 06010G14KT P6SM SKC
     FM010000 04006KT P6SM SKC=



000
FTUS46 KOTX 281005 AAA
TAFGEG
TAF AMD
KGEG 281005Z 2810/0106 03014G20KT P6SM FEW250
     FM281600 03015G20KT P6SM SKC
     FM282000 03012KT P6SM SKC
     FM010000 03008KT P6SM SKC=



000
FTUS46 KOTX 281005 AAA
TAFGEG
TAF AMD
KGEG 281005Z 2810/0106 03014G20KT P6SM FEW250
     FM281600 03015G20KT P6SM SKC
     FM282000 03012KT P6SM SKC
     FM010000 03008KT P6SM SKC=



000
FTUS46 KOTX 281005 AAA
TAFGEG
TAF AMD
KGEG 281005Z 2810/0106 03014G20KT P6SM FEW250
     FM281600 03015G20KT P6SM SKC
     FM282000 03012KT P6SM SKC
     FM010000 03008KT P6SM SKC=



000
FTUS46 KOTX 281005 AAA
TAFGEG
TAF AMD
KGEG 281005Z 2810/0106 03014G20KT P6SM FEW250
     FM281600 03015G20KT P6SM SKC
     FM282000 03012KT P6SM SKC
     FM010000 03008KT P6SM SKC=



000
FTUS46 KOTX 280534
TAFSFF
TAF
KSFF 280534Z 2806/0106 06012KT P6SM FEW250
     FM281500 05017G24KT P6SM SKC
     FM282000 06010G14KT P6SM SKC
     FM010000 04006KT P6SM SKC=



000
FTUS46 KOTX 280534
TAFCOE
TAF
KCOE 280534Z 2806/0106 02020G32KT P6SM FEW250
     FM281500 03015G20KT P6SM SKC
     FM282100 04015KT P6SM SKC
     FM010100 04009KT P6SM SKC
      AMD LTD TO CLD AND VIS=



000
FTUS46 KOTX 280534
TAFGEG
TAF
KGEG 280534Z 2806/0106 04018G28KT P6SM FEW250
     FM281500 03015G20KT P6SM SKC
     FM282000 03012KT P6SM SKC
     FM010000 03008KT P6SM SKC=



000
FTUS46 KOTX 280534
TAFSFF
TAF
KSFF 280534Z 2806/0106 06012KT P6SM FEW250
     FM281500 05017G24KT P6SM SKC
     FM282000 06010G14KT P6SM SKC
     FM010000 04006KT P6SM SKC=



000
FTUS46 KOTX 280534
TAFMWH
TAF
KMWH 280534Z 2806/0106 03020G30KT P6SM SCT200
     FM281500 02015G26KT P6SM SKC
     FM282300 01010G15KT P6SM SKC
     FM010300 36008KT P6SM SKC=



000
FTUS46 KOTX 280534
TAFLWS
TAF
KLWS 280534Z 2806/0106 06010KT P6SM SCT200
     FM281500 03012KT P6SM SKC
     FM282100 33012KT P6SM SKC
     FM010200 VRB04KT P6SM SKC=



000
FTUS46 KOTX 280534
TAFEAT
TAF
KEAT 280534Z 2806/0106 02010KT P6SM SCT070 BKN100
     FM281200 34013KT P6SM SKC
     FM281900 30010KT P6SM SKC
     FM282300 31005KT P6SM SKC=



000
FTUS46 KOTX 280534
TAFGEG
TAF
KGEG 280534Z 2806/0106 04018G28KT P6SM FEW250
     FM281500 03015G20KT P6SM SKC
     FM282000 03012KT P6SM SKC
     FM010000 03008KT P6SM SKC=



000
FTUS46 KOTX 280534
TAFPUW
TAF
KPUW 280534Z 2806/0106 06012G22KT P6SM SCT200
     FM281500 08014G20KT P6SM SKC
     FM281900 10010KT P6SM SKC
     FM010100 09005KT P6SM SKC=



000
FTUS46 KOTX 280534
TAFLWS
TAF
KLWS 280534Z 2806/0106 06010KT P6SM SCT200
     FM281500 03012KT P6SM SKC
     FM282100 33012KT P6SM SKC
     FM010200 VRB04KT P6SM SKC=



000
FTUS46 KOTX 280534
TAFCOE
TAF
KCOE 280534Z 2806/0106 02020G32KT P6SM FEW250
     FM281500 03015G20KT P6SM SKC
     FM282100 04015KT P6SM SKC
     FM010100 04009KT P6SM SKC
      AMD LTD TO CLD AND VIS=



000
FTUS46 KOTX 280534
TAFEAT
TAF
KEAT 280534Z 2806/0106 02010KT P6SM SCT070 BKN100
     FM281200 34013KT P6SM SKC
     FM281900 30010KT P6SM SKC
     FM282300 31005KT P6SM SKC=



000
FTUS46 KOTX 280534
TAFMWH
TAF
KMWH 280534Z 2806/0106 03020G30KT P6SM SCT200
     FM281500 02015G26KT P6SM SKC
     FM282300 01010G15KT P6SM SKC
     FM010300 36008KT P6SM SKC=



000
FTUS46 KOTX 280534
TAFPUW
TAF
KPUW 280534Z 2806/0106 06012G22KT P6SM SCT200
     FM281500 08014G20KT P6SM SKC
     FM281900 10010KT P6SM SKC
     FM010100 09005KT P6SM SKC=



000
FTUS46 KOTX 280534
TAFSFF
TAF
KSFF 280534Z 2806/0106 06012KT P6SM FEW250
     FM281500 05017G24KT P6SM SKC
     FM282000 06010G14KT P6SM SKC
     FM010000 04006KT P6SM SKC=



000
FTUS46 KOTX 280534
TAFEAT
TAF
KEAT 280534Z 2806/0106 02010KT P6SM SCT070 BKN100
     FM281200 34013KT P6SM SKC
     FM281900 30010KT P6SM SKC
     FM282300 31005KT P6SM SKC=



000
FTUS46 KOTX 280534
TAFPUW
TAF
KPUW 280534Z 2806/0106 06012G22KT P6SM SCT200
     FM281500 08014G20KT P6SM SKC
     FM281900 10010KT P6SM SKC
     FM010100 09005KT P6SM SKC=



000
FTUS46 KOTX 280534
TAFPUW
TAF
KPUW 280534Z 2806/0106 06012G22KT P6SM SCT200
     FM281500 08014G20KT P6SM SKC
     FM281900 10010KT P6SM SKC
     FM010100 09005KT P6SM SKC=



000
FTUS46 KOTX 280534
TAFCOE
TAF
KCOE 280534Z 2806/0106 02020G32KT P6SM FEW250
     FM281500 03015G20KT P6SM SKC
     FM282100 04015KT P6SM SKC
     FM010100 04009KT P6SM SKC
      AMD LTD TO CLD AND VIS=



000
FTUS46 KOTX 280534
TAFLWS
TAF
KLWS 280534Z 2806/0106 06010KT P6SM SCT200
     FM281500 03012KT P6SM SKC
     FM282100 33012KT P6SM SKC
     FM010200 VRB04KT P6SM SKC=



000
FTUS46 KOTX 280534
TAFGEG
TAF
KGEG 280534Z 2806/0106 04018G28KT P6SM FEW250
     FM281500 03015G20KT P6SM SKC
     FM282000 03012KT P6SM SKC
     FM010000 03008KT P6SM SKC=



000
FTUS46 KOTX 280534
TAFGEG
TAF
KGEG 280534Z 2806/0106 04018G28KT P6SM FEW250
     FM281500 03015G20KT P6SM SKC
     FM282000 03012KT P6SM SKC
     FM010000 03008KT P6SM SKC=



000
FTUS46 KOTX 280534
TAFSFF
TAF
KSFF 280534Z 2806/0106 06012KT P6SM FEW250
     FM281500 05017G24KT P6SM SKC
     FM282000 06010G14KT P6SM SKC
     FM010000 04006KT P6SM SKC=



000
FTUS46 KOTX 280534
TAFCOE
TAF
KCOE 280534Z 2806/0106 02020G32KT P6SM FEW250
     FM281500 03015G20KT P6SM SKC
     FM282100 04015KT P6SM SKC
     FM010100 04009KT P6SM SKC
      AMD LTD TO CLD AND VIS=



000
FTUS46 KOTX 280534
TAFMWH
TAF
KMWH 280534Z 2806/0106 03020G30KT P6SM SCT200
     FM281500 02015G26KT P6SM SKC
     FM282300 01010G15KT P6SM SKC
     FM010300 36008KT P6SM SKC=



000
FTUS46 KOTX 280534
TAFLWS
TAF
KLWS 280534Z 2806/0106 06010KT P6SM SCT200
     FM281500 03012KT P6SM SKC
     FM282100 33012KT P6SM SKC
     FM010200 VRB04KT P6SM SKC=



000
FTUS46 KOTX 280534
TAFMWH
TAF
KMWH 280534Z 2806/0106 03020G30KT P6SM SCT200
     FM281500 02015G26KT P6SM SKC
     FM282300 01010G15KT P6SM SKC
     FM010300 36008KT P6SM SKC=



000
FTUS46 KOTX 280534
TAFEAT
TAF
KEAT 280534Z 2806/0106 02010KT P6SM SCT070 BKN100
     FM281200 34013KT P6SM SKC
     FM281900 30010KT P6SM SKC
     FM282300 31005KT P6SM SKC=



000
FTUS46 KOTX 272323
TAFCOE
TAF
KCOE 272323Z 2800/2824 04016G24KT P6SM FEW250
     FM280300 04022G35KT P6SM SKC
     FM281800 04015KT P6SM SKC
      AMD LTD TO CLD AND VIS=



000
FTUS46 KOTX 272323
TAFGEG
TAF
KGEG 272323Z 2800/2824 04017KT P6SM SCT080 BKN250
     FM280400 04020G28KT P6SM FEW250
     FM282100 03012KT P6SM FEW250=



000
FTUS46 KOTX 272323
TAFEAT
TAF
KEAT 272323Z 2800/2824 30007KT P6SM SCT050 BKN100
     FM280300 34011KT P6SM SCT050 BKN150
     FM280900 34013KT P6SM SKC
     FM281200 30012KT P6SM SKC=



000
FTUS46 KOTX 272323
TAFLWS
TAF
KLWS 272323Z 2800/2824 04008KT P6SM SCT080 SCT250
     FM280900 07010KT P6SM OVC250
     FM281200 04015KT P6SM BKN250
     FM281500 03012KT P6SM SKC
     FM282100 33012KT P6SM SKC=



000
FTUS46 KOTX 272323
TAFSFF
TAF
KSFF 272323Z 2800/2824 06010G17KT P6SM SCT080 SCT250
     FM280400 06012KT P6SM SKC
     FM281600 05017G22KT P6SM SKC
     FM281900 06010G14KT P6SM SKC=



000
FTUS46 KOTX 272323
TAFMWH
TAF
KMWH 272323Z 2800/2824 03018G25KT P6SM BKN100 BKN250
     FM280400 03020G30KT P6SM SCT250
     FM281800 02015G26KT P6SM SKC=



000
FTUS46 KOTX 272323
TAFEAT
TAF
KEAT 272323Z 2800/2824 30007KT P6SM SCT050 BKN100
     FM280300 34011KT P6SM SCT050 BKN150
     FM280900 34013KT P6SM SKC
     FM281200 30012KT P6SM SKC=



000
FTUS46 KOTX 272323
TAFGEG
TAF
KGEG 272323Z 2800/2824 04017KT P6SM SCT080 BKN250
     FM280400 04020G28KT P6SM FEW250
     FM282100 03012KT P6SM FEW250=



000
FTUS46 KOTX 272323
TAFPUW
TAF
KPUW 272323Z 2800/2824 14011KT P6SM SCT060
     FM280700 08013G24KT P6SM SCT200
     FM281900 10010KT P6SM SKC=



000
FTUS46 KOTX 272323
TAFLWS
TAF
KLWS 272323Z 2800/2824 04008KT P6SM SCT080 SCT250
     FM280900 07010KT P6SM OVC250
     FM281200 04015KT P6SM BKN250
     FM281500 03012KT P6SM SKC
     FM282100 33012KT P6SM SKC=



000
FTUS46 KOTX 272323
TAFCOE
TAF
KCOE 272323Z 2800/2824 04016G24KT P6SM FEW250
     FM280300 04022G35KT P6SM SKC
     FM281800 04015KT P6SM SKC
      AMD LTD TO CLD AND VIS=



000
FTUS46 KOTX 272323
TAFSFF
TAF
KSFF 272323Z 2800/2824 06010G17KT P6SM SCT080 SCT250
     FM280400 06012KT P6SM SKC
     FM281600 05017G22KT P6SM SKC
     FM281900 06010G14KT P6SM SKC=



000
FTUS46 KOTX 272323
TAFPUW
TAF
KPUW 272323Z 2800/2824 14011KT P6SM SCT060
     FM280700 08013G24KT P6SM SCT200
     FM281900 10010KT P6SM SKC=



000
FTUS46 KOTX 272323
TAFMWH
TAF
KMWH 272323Z 2800/2824 03018G25KT P6SM BKN100 BKN250
     FM280400 03020G30KT P6SM SCT250
     FM281800 02015G26KT P6SM SKC=



000
FTUS46 KOTX 272003 AAA
TAFEAT
TAF AMD
KEAT 272003Z 2720/2818 30009KT P6SM VCSH BKN035 OVC100
     FM280300 34011KT P6SM BKN120
     FM280700 32008KT P6SM SCT250=



000
FTUS46 KOTX 272003 AAA
TAFEAT
TAF AMD
KEAT 272003Z 2720/2818 30009KT P6SM VCSH BKN035 OVC100
     FM280300 34011KT P6SM BKN120
     FM280700 32008KT P6SM SCT250=



000
FTUS46 KOTX 272003 AAA
TAFEAT
TAF AMD
KEAT 272003Z 2720/2818 30009KT P6SM VCSH BKN035 OVC100
     FM280300 34011KT P6SM BKN120
     FM280700 32008KT P6SM SCT250=



000
FTUS46 KOTX 272003 AAA
TAFEAT
TAF AMD
KEAT 272003Z 2720/2818 30009KT P6SM VCSH BKN035 OVC100
     FM280300 34011KT P6SM BKN120
     FM280700 32008KT P6SM SCT250=



000
FTUS46 KOTX 271737
TAFMWH
TAF
KMWH 271737Z 2718/2818 02008KT P6SM OVC100
     FM272000 03014G23KT P6SM BKN100
     FM280400 02024G30KT P6SM SCT250=



000
FTUS46 KOTX 271737
TAFGEG
TAF
KGEG 271737Z 2718/2818 05009KT P6SM FEW100 SCT200
     FM272000 05013G21KT P6SM FEW250
     FM280200 04014KT P6SM FEW250
     FM281600 04013G20KT P6SM SKC=



000
FTUS46 KOTX 271737
TAFCOE
TAF
KCOE 271737Z 2718/2818 02014KT P6SM SKC
     FM271900 03016G24KT P6SM FEW250
     FM280100 03019G28KT P6SM SKC
      AMD LTD TO CLD AND VIS=



000
FTUS46 KOTX 271737
TAFSFF
TAF
KSFF 271737Z 2718/2818 06006KT P6SM FEW100 SCT200
     FM272000 05010G17KT P6SM FEW250
     FM280200 05011KT P6SM FEW250
     FM281700 05010G15KT P6SM SKC=



000
FTUS46 KOTX 271737
TAFEAT
TAF
KEAT 271737Z 2718/2818 28005KT 6SM -RA BR BKN018 OVC023
     FM272000 34009KT P6SM VCSH BKN024 OVC100
     FM280300 34011KT P6SM BKN120
     FM280700 32008KT P6SM SCT250=



000
FTUS46 KOTX 271737
TAFPUW
TAF
KPUW 271737Z 2718/2818 10011KT P6SM SKC
     FM280700 08013G19KT P6SM SCT200=



000
FTUS46 KOTX 271737
TAFLWS
TAF
KLWS 271737Z 2718/2818 03004KT P6SM FEW150 SCT200
     FM272300 08010KT P6SM SKC
     FM280600 12015G24KT P6SM OVC100=



000
FTUS46 KOTX 271737
TAFGEG
TAF
KGEG 271737Z 2718/2818 05009KT P6SM FEW100 SCT200
     FM272000 05013G21KT P6SM FEW250
     FM280200 04014KT P6SM FEW250
     FM281600 04013G20KT P6SM SKC=



000
FTUS46 KOTX 271737
TAFCOE
TAF
KCOE 271737Z 2718/2818 02014KT P6SM SKC
     FM271900 03016G24KT P6SM FEW250
     FM280100 03019G28KT P6SM SKC
      AMD LTD TO CLD AND VIS=



000
FTUS46 KOTX 271737
TAFPUW
TAF
KPUW 271737Z 2718/2818 10011KT P6SM SKC
     FM280700 08013G19KT P6SM SCT200=



000
FTUS46 KOTX 271737
TAFLWS
TAF
KLWS 271737Z 2718/2818 03004KT P6SM FEW150 SCT200
     FM272300 08010KT P6SM SKC
     FM280600 12015G24KT P6SM OVC100=



000
FTUS46 KOTX 271737
TAFSFF
TAF
KSFF 271737Z 2718/2818 06006KT P6SM FEW100 SCT200
     FM272000 05010G17KT P6SM FEW250
     FM280200 05011KT P6SM FEW250
     FM281700 05010G15KT P6SM SKC=



000
FTUS46 KOTX 271737
TAFEAT
TAF
KEAT 271737Z 2718/2818 28005KT 6SM -RA BR BKN018 OVC023
     FM272000 34009KT P6SM VCSH BKN024 OVC100
     FM280300 34011KT P6SM BKN120
     FM280700 32008KT P6SM SCT250=



000
FTUS46 KOTX 271737
TAFMWH
TAF
KMWH 271737Z 2718/2818 02008KT P6SM OVC100
     FM272000 03014G23KT P6SM BKN100
     FM280400 02024G30KT P6SM SCT250=



000
FTUS46 KOTX 271422 AAB
TAFEAT
TAF AMD
KEAT 271422Z 2714/2812 VRB04KT 4SM -RA BR FEW002 OVC017
      TEMPO 2714/2716 P6SM -RA BKN020 OVC028
     FM271900 34009KT P6SM VCSH BKN060 BKN100
     FM280300 31015KT P6SM BKN120
     FM280700 30016G24KT P6SM SCT250=



000
FTUS46 KOTX 271422 AAB
TAFEAT
TAF AMD
KEAT 271422Z 2714/2812 VRB04KT 4SM -RA BR FEW002 OVC017
      TEMPO 2714/2716 P6SM -RA BKN020 OVC028
     FM271900 34009KT P6SM VCSH BKN060 BKN100
     FM280300 31015KT P6SM BKN120
     FM280700 30016G24KT P6SM SCT250=



000
FTUS46 KOTX 271422 AAB
TAFEAT
TAF AMD
KEAT 271422Z 2714/2812 VRB04KT 4SM -RA BR FEW002 OVC017
      TEMPO 2714/2716 P6SM -RA BKN020 OVC028
     FM271900 34009KT P6SM VCSH BKN060 BKN100
     FM280300 31015KT P6SM BKN120
     FM280700 30016G24KT P6SM SCT250=



000
FTUS46 KOTX 271422 AAB
TAFEAT
TAF AMD
KEAT 271422Z 2714/2812 VRB04KT 4SM -RA BR FEW002 OVC017
      TEMPO 2714/2716 P6SM -RA BKN020 OVC028
     FM271900 34009KT P6SM VCSH BKN060 BKN100
     FM280300 31015KT P6SM BKN120
     FM280700 30016G24KT P6SM SCT250=



000
FTUS46 KOTX 271301 AAA
TAFEAT
TAF AMD
KEAT 271301Z 2713/2812 VRB04KT P6SM -RA BKN020 OVC028
     FM271900 34009KT P6SM VCSH BKN060 BKN100
     FM280300 31015KT P6SM BKN120
     FM280700 30016G24KT P6SM SCT250=



000
FTUS46 KOTX 271301 AAA
TAFEAT
TAF AMD
KEAT 271301Z 2713/2812 VRB04KT P6SM -RA BKN020 OVC028
     FM271900 34009KT P6SM VCSH BKN060 BKN100
     FM280300 31015KT P6SM BKN120
     FM280700 30016G24KT P6SM SCT250=



000
FTUS46 KOTX 271301 AAA
TAFEAT
TAF AMD
KEAT 271301Z 2713/2812 VRB04KT P6SM -RA BKN020 OVC028
     FM271900 34009KT P6SM VCSH BKN060 BKN100
     FM280300 31015KT P6SM BKN120
     FM280700 30016G24KT P6SM SCT250=



000
FTUS46 KOTX 271126
TAFSFF
TAF
KSFF 271126Z 2712/2812 07003KT P6SM BKN100 BKN200
     FM271600 05003KT P6SM SCT250
     FM272000 05010G17KT P6SM FEW250
     FM280200 05007KT P6SM FEW250=



000
FTUS46 KOTX 271126
TAFPUW
TAF
KPUW 271126Z 2712/2812 07005KT P6SM BKN200
     FM271500 09010KT P6SM SCT250
     FM280100 05008KT P6SM BKN150=



000
FTUS46 KOTX 271126
TAFLWS
TAF
KLWS 271126Z 2712/2812 13003KT P6SM BKN200
     FM271800 08008KT P6SM SCT250
     FM280000 30009KT P6SM BKN100
     FM280600 12015G24KT P6SM OVC100=



000
FTUS46 KOTX 271126
TAFGEG
TAF
KGEG 271126Z 2712/2812 05005KT P6SM SCT090 BKN200
     FM272000 05014G21KT P6SM FEW250
     FM280200 04010KT P6SM FEW250=



000
FTUS46 KOTX 271126
TAFEAT
TAF
KEAT 271126Z 2712/2812 14009KT 6SM -RA BR SCT026 OVC040
     FM271900 34009KT P6SM VCSH BKN060 BKN100
     FM280300 31015KT P6SM BKN120
     FM280700 30016G24KT P6SM SCT250=



000
FTUS46 KOTX 271126
TAFMWH
TAF
KMWH 271126Z 2712/2812 01007KT P6SM VCSH OVC070
     FM271800 03018G24KT P6SM BKN090
     FM280400 02024G30KT P6SM SCT250=



000
FTUS46 KOTX 271126
TAFCOE
TAF
KCOE 271126Z 2712/2812 07007KT P6SM BKN200
     FM271900 03016G24KT P6SM FEW250
     FM280100 03020G28KT P6SM FEW250
      AMD LTD TO CLD AND VIS=



000
FTUS46 KOTX 271126
TAFGEG
TAF
KGEG 271126Z 2712/2812 05005KT P6SM SCT090 BKN200
     FM272000 05014G21KT P6SM FEW250
     FM280200 04010KT P6SM FEW250=



000
FTUS46 KOTX 271126
TAFMWH
TAF
KMWH 271126Z 2712/2812 01007KT P6SM VCSH OVC070
     FM271800 03018G24KT P6SM BKN090
     FM280400 02024G30KT P6SM SCT250=



000
FTUS46 KOTX 271126
TAFEAT
TAF
KEAT 271126Z 2712/2812 14009KT 6SM -RA BR SCT026 OVC040
     FM271900 34009KT P6SM VCSH BKN060 BKN100
     FM280300 31015KT P6SM BKN120
     FM280700 30016G24KT P6SM SCT250=



000
FTUS46 KOTX 271126
TAFPUW
TAF
KPUW 271126Z 2712/2812 07005KT P6SM BKN200
     FM271500 09010KT P6SM SCT250
     FM280100 05008KT P6SM BKN150=



000
FTUS46 KOTX 271126
TAFCOE
TAF
KCOE 271126Z 2712/2812 07007KT P6SM BKN200
     FM271900 03016G24KT P6SM FEW250
     FM280100 03020G28KT P6SM FEW250
      AMD LTD TO CLD AND VIS=



000
FTUS46 KOTX 271126
TAFLWS
TAF
KLWS 271126Z 2712/2812 13003KT P6SM BKN200
     FM271800 08008KT P6SM SCT250
     FM280000 30009KT P6SM BKN100
     FM280600 12015G24KT P6SM OVC100=



    US Dept of Commerce
    National Oceanic and Atmospheric Administration
    National Weather Service
    1325 East West Highway
    Silver Spring, MD 20910
    Page Author: NWS Internet Services Team
Disclaimer
Information Quality
Credits
Glossary
Privacy Policy
Freedom of Information Act (FOIA)
About Us
Career Opportunities